Time;durP1;ratioP1;P1;durP2;ratioP2;P2;SDS_P1;SDS_P2;PMS_P1;PMS_P2;Temp;Humidity;BMP_temperature;BMP_pressure;BME280_temperature;BME280_humidity;BME280_pressure;Samples;Min_cycle;Max_cycle;Signal;HPM_P1;HPM_P2
2023/10/24 00:00:09;;;;;;;5.07;2.72;;;13.10;99.90;;;;;;5017947;28;20028;-65
2023/10/24 00:02:34;;;;;;;3.55;2.22;;;13.10;99.90;;;;;;5017089;28;20026;-66
2023/10/24 00:05:00;;;;;;;7.88;2.83;;;13.20;99.90;;;;;;5017517;28;20029;-65
2023/10/24 00:07:25;;;;;;;8.75;2.22;;;13.10;99.90;;;;;;5017361;28;20034;-65
2023/10/24 00:09:51;;;;;;;5.30;2.70;;;13.20;99.90;;;;;;5018088;28;20030;-66
2023/10/24 00:12:16;;;;;;;11.35;2.75;;;13.20;99.90;;;;;;5016694;28;20034;-65
2023/10/24 00:14:42;;;;;;;7.68;2.42;;;13.20;99.90;;;;;;5017783;28;20029;-65
2023/10/24 00:17:08;;;;;;;4.63;3.55;;;13.30;99.90;;;;;;5016769;28;20022;-65
2023/10/24 00:19:33;;;;;;;6.97;2.80;;;13.30;99.90;;;;;;5016584;28;20040;-65
2023/10/24 00:21:59;;;;;;;4.32;2.35;;;13.30;99.90;;;;;;5016895;28;20030;-65
2023/10/24 00:24:26;;;;;;;5.80;2.50;;;13.40;99.90;;;;;;5017648;28;20026;-65
2023/10/24 00:26:51;;;;;;;4.65;2.55;;;13.30;99.90;;;;;;5016514;28;20037;-65
2023/10/24 00:29:17;;;;;;;4.28;2.13;;;13.40;99.90;;;;;;5017032;28;20026;-65
2023/10/24 00:31:42;;;;;;;4.50;2.55;;;13.40;99.90;;;;;;5016797;28;20022;-65
2023/10/24 00:34:12;;;;;;;5.30;2.47;;;13.30;99.90;;;;;;5016880;28;20117;-65
2023/10/24 00:36:39;;;;;;;4.72;2.10;;;13.20;99.90;;;;;;5016823;28;20165;-65
2023/10/24 00:39:05;;;;;;;6.05;2.33;;;13.10;99.90;;;;;;5016943;28;20112;-65
2023/10/24 00:41:31;;;;;;;5.65;2.78;;;13.10;99.90;;;;;;5016755;28;20018;-65
2023/10/24 00:43:56;;;;;;;3.08;2.08;;;13.00;99.90;;;;;;5016481;28;20028;-65
2023/10/24 00:46:22;;;;;;;5.75;2.60;;;13.00;99.90;;;;;;5016603;28;20018;-65
2023/10/24 00:48:48;;;;;;;7.50;2.80;;;13.10;99.90;;;;;;5016304;28;20026;-66
2023/10/24 00:51:13;;;;;;;4.40;2.20;;;13.10;99.90;;;;;;5016347;28;20032;-66
2023/10/24 00:53:40;;;;;;;6.43;2.95;;;13.20;99.90;;;;;;5016482;28;20029;-66
2023/10/24 00:56:06;;;;;;;4.57;2.25;;;13.20;99.90;;;;;;5017179;28;20048;-66
2023/10/24 00:58:34;;;;;;;5.95;2.50;;;13.20;99.90;;;;;;5016334;28;20026;-66
2023/10/24 01:01:00;;;;;;;5.72;2.35;;;13.30;99.90;;;;;;5016584;28;20022;-66
2023/10/24 01:03:26;;;;;;;2.95;2.08;;;13.20;99.90;;;;;;5016455;28;20030;-66
2023/10/24 01:05:52;;;;;;;4.97;2.47;;;13.10;99.90;;;;;;5019430;28;20091;-66
2023/10/24 01:08:18;;;;;;;5.55;1.83;;;13.00;99.90;;;;;;5020292;28;20022;-66
2023/10/24 01:10:44;;;;;;;4.63;2.13;;;13.00;99.90;;;;;;5020504;28;20037;-66
2023/10/24 01:13:09;;;;;;;4.82;2.60;;;13.10;99.90;;;;;;5020186;28;20029;-67
2023/10/24 01:15:35;;;;;;;5.88;2.50;;;13.30;99.90;;;;;;5020274;28;20077;-66
2023/10/24 01:18:02;;;;;;;7.78;2.35;;;13.30;99.90;;;;;;5020351;28;20022;-66
2023/10/24 01:20:28;;;;;;;3.95;2.15;;;13.50;99.90;;;;;;5020005;28;20029;-66
2023/10/24 01:22:54;;;;;;;8.55;2.67;;;13.50;99.90;;;;;;5019825;28;20025;-66
2023/10/24 01:25:20;;;;;;;4.20;2.63;;;13.50;99.90;;;;;;5019979;28;20076;-66
2023/10/24 01:27:51;;;;;;;4.80;3.28;;;13.60;99.90;;;;;;5019792;28;20056;-66
2023/10/24 01:30:17;;;;;;;;;;;13.60;99.90;;;;;;5021060;28;20053;-66
2023/10/24 01:32:42;;;;;;;5.25;2.20;;;13.70;99.90;;;;;;5020667;28;19913;-66
2023/10/24 01:35:10;;;;;;;5.97;2.50;;;13.80;99.90;;;;;;5019734;28;20018;-66
2023/10/24 01:37:35;;;;;;;4.90;2.13;;;14.00;99.90;;;;;;5019825;28;20112;-66
2023/10/24 01:40:05;;;;;;;4.07;2.50;;;14.00;99.90;;;;;;5019502;28;20100;-66
2023/10/24 01:42:30;;;;;;;3.60;2.35;;;14.10;99.90;;;;;;5020322;28;20033;-66
2023/10/24 01:44:56;;;;;;;6.03;2.67;;;14.00;99.90;;;;;;5019479;28;20060;-66
2023/10/24 01:47:21;;;;;;;4.25;2.80;;;14.00;99.90;;;;;;5019551;28;20041;-66
2023/10/24 01:49:47;;;;;;;5.72;2.35;;;14.00;99.90;;;;;;5019673;28;20022;-66
2023/10/24 01:52:13;;;;;;;4.13;2.20;;;14.00;99.90;;;;;;5020080;28;20033;-66
2023/10/24 01:54:38;;;;;;;4.90;2.03;;;14.00;99.90;;;;;;5019961;28;20030;-66
2023/10/24 01:57:04;;;;;;;5.53;2.53;;;14.00;99.90;;;;;;5019192;28;20026;-66
2023/10/24 01:59:29;;;;;;;4.18;2.65;;;14.00;99.90;;;;;;5019281;28;20121;-66
2023/10/24 02:01:55;;;;;;;6.20;2.95;;;13.90;99.90;;;;;;5019204;28;20022;-66
2023/10/24 02:04:21;;;;;;;8.70;2.92;;;13.90;99.90;;;;;;5019408;28;20029;-66
2023/10/24 02:06:46;;;;;;;7.07;2.20;;;14.00;99.90;;;;;;5019075;28;20022;-66
2023/10/24 02:09:12;;;;;;;5.95;3.00;;;13.90;99.90;;;;;;5018924;28;20095;-66
2023/10/24 02:11:37;;;;;;;4.20;2.17;;;13.80;99.90;;;;;;5019240;28;20026;-66
2023/10/24 02:14:04;;;;;;;6.95;2.40;;;13.90;99.90;;;;;;5018957;28;20026;-66
2023/10/24 02:16:29;;;;;;;3.97;2.35;;;13.90;99.90;;;;;;5019107;28;20111;-66
2023/10/24 02:18:55;;;;;;;11.00;2.97;;;13.80;99.90;;;;;;5018962;28;20054;-66
2023/10/24 02:21:20;;;;;;;10.20;2.53;;;13.80;99.90;;;;;;5019098;28;20022;-67
2023/10/24 02:23:46;;;;;;;6.95;3.15;;;13.80;99.90;;;;;;5019093;28;20026;-67
2023/10/24 02:26:15;;;;;;;7.47;3.05;;;13.80;99.90;;;;;;5019580;28;20141;-67
2023/10/24 02:28:41;;;;;;;5.63;3.17;;;13.70;99.90;;;;;;5019365;28;20041;-66
2023/10/24 02:31:07;;;;;;;4.70;3.50;;;13.50;99.90;;;;;;5018897;28;20030;-66
2023/10/24 02:33:33;;;;;;;4.88;3.53;;;13.50;99.90;;;;;;5018747;28;20052;-66
2023/10/24 02:36:10;;;;;;;8.82;3.03;;;13.40;99.90;;;;;;5019420;28;20022;-66
2023/10/24 02:38:36;;;;;;;8.40;3.15;;;13.50;99.90;;;;;;5018616;28;20018;-66
2023/10/24 02:41:03;;;;;;;7.25;3.60;;;13.50;99.90;;;;;;5018519;28;20026;-66
2023/10/24 02:43:29;;;;;;;6.82;3.03;;;13.40;99.90;;;;;;5018431;28;20097;-66
2023/10/24 02:45:55;;;;;;;12.65;4.10;;;13.30;99.90;;;;;;5018346;28;20058;-66
2023/10/24 02:48:21;;;;;;;9.15;3.63;;;13.30;99.90;;;;;;5030516;23;20047;-69
2023/10/24 02:50:53;;;;;;;10.75;4.65;;;13.40;99.90;;;;;;4999633;28;20034;-69
2023/10/24 02:53:19;;;;;;;9.32;3.63;;;13.60;99.90;;;;;;4999553;28;20034;-68
2023/10/24 02:55:44;;;;;;;11.32;3.85;;;13.80;99.90;;;;;;5015666;28;20041;-68
2023/10/24 02:58:10;;;;;;;9.43;4.05;;;13.80;99.90;;;;;;4999438;28;20038;-69
2023/10/24 03:00:35;;;;;;;9.80;3.85;;;13.80;99.90;;;;;;4999215;28;20113;-68
2023/10/24 03:03:01;;;;;;;6.50;3.60;;;13.70;99.90;;;;;;4999018;28;20037;-68
2023/10/24 03:05:26;;;;;;;6.22;4.28;;;13.50;99.90;;;;;;4998503;28;20094;-68
2023/10/24 03:07:52;;;;;;;9.10;4.63;;;13.40;99.90;;;;;;4998290;28;20026;-68
2023/10/24 03:10:18;;;;;;;12.32;4.35;;;13.20;99.90;;;;;;4998701;28;20022;-69
2023/10/24 03:12:43;;;;;;;6.50;4.72;;;13.10;99.90;;;;;;4998194;28;20117;-68
2023/10/24 03:15:09;;;;;;;7.63;4.50;;;13.10;99.90;;;;;;4999589;28;20044;-69
2023/10/24 03:17:35;;;;;;;11.40;4.45;;;13.20;99.90;;;;;;4998251;28;20025;-69
2023/10/24 03:20:00;;;;;;;6.80;4.70;;;13.40;99.90;;;;;;4998604;28;20030;-69
2023/10/24 03:22:26;;;;;;;6.78;4.07;;;13.40;99.90;;;;;;4998327;28;20033;-68
2023/10/24 03:24:51;;;;;;;9.38;4.68;;;13.20;99.90;;;;;;4997989;28;20034;-68
2023/10/24 03:27:17;;;;;;;7.03;4.20;;;13.20;99.90;;;;;;4998084;28;20026;-68
2023/10/24 03:29:43;;;;;;;9.10;5.45;;;13.10;99.90;;;;;;4998835;28;20057;-68
2023/10/24 03:32:12;;;;;;;11.30;5.35;;;13.20;99.90;;;;;;4998031;28;20063;-68
2023/10/24 03:34:37;;;;;;;7.65;4.03;;;13.20;99.90;;;;;;4997827;28;20027;-68
2023/10/24 03:37:03;;;;;;;11.68;5.25;;;13.30;99.90;;;;;;4998746;28;20022;-68
2023/10/24 03:39:29;;;;;;;11.00;5.50;;;13.20;99.90;;;;;;4997782;28;20037;-69
2023/10/24 03:41:54;;;;;;;9.00;5.35;;;13.20;99.90;;;;;;4998591;28;20076;-68
2023/10/24 03:44:22;;;;;;;8.02;5.40;;;13.20;99.90;;;;;;4998317;28;20023;-68
2023/10/24 03:46:48;;;;;;;6.60;4.70;;;13.10;99.90;;;;;;4998604;28;20041;-68
2023/10/24 03:49:13;;;;;;;10.73;5.25;;;13.30;99.90;;;;;;4997384;28;20110;-69
2023/10/24 03:51:39;;;;;;;11.95;5.53;;;13.40;99.90;;;;;;4998359;28;20019;-68
2023/10/24 03:54:05;;;;;;;10.13;5.35;;;13.30;99.90;;;;;;4997762;28;20113;-68
2023/10/24 03:56:31;;;;;;;10.57;5.43;;;13.20;99.90;;;;;;4997715;28;20029;-68
2023/10/24 03:58:57;;;;;;;12.48;5.10;;;13.20;99.90;;;;;;4998526;28;20052;-68
2023/10/24 04:01:22;;;;;;;15.10;5.70;;;13.20;99.90;;;;;;4997819;28;20022;-68
2023/10/24 04:03:48;;;;;;;12.27;5.43;;;13.30;99.90;;;;;;4997595;28;20030;-68
2023/10/24 04:06:14;;;;;;;10.15;5.60;;;13.30;99.90;;;;;;4997397;28;20030;-68
2023/10/24 04:08:40;;;;;;;8.65;5.65;;;13.20;99.90;;;;;;4997274;28;20061;-68
2023/10/24 04:11:16;;;;;;;10.75;5.28;;;13.20;99.90;;;;;;4997413;28;20033;-68
2023/10/24 04:13:42;;;;;;;10.43;6.00;;;13.10;99.90;;;;;;4998016;28;20034;-68
2023/10/24 04:16:08;;;;;;;10.70;6.80;;;13.00;99.90;;;;;;4997470;28;20022;-68
2023/10/24 04:18:34;;;;;;;12.68;7.18;;;13.00;99.90;;;;;;4996994;28;20029;-68
2023/10/24 04:20:59;;;;;;;14.75;7.30;;;12.80;99.90;;;;;;4997924;28;20023;-68
2023/10/24 04:23:25;;;;;;;11.32;6.88;;;12.80;99.90;;;;;;4997853;28;20066;-69
2023/10/24 04:25:50;;;;;;;12.15;6.93;;;12.80;99.90;;;;;;4997100;28;20027;-68
2023/10/24 04:28:16;;;;;;;12.40;7.68;;;12.70;99.90;;;;;;4996871;28;20055;-68
2023/10/24 04:30:42;;;;;;;16.13;8.15;;;12.70;99.90;;;;;;4997163;28;20073;-68
2023/10/24 04:33:08;;;;;;;11.48;7.30;;;12.60;99.90;;;;;;4997937;28;20026;-68
2023/10/24 04:35:40;;;;;;;14.05;7.85;;;12.60;99.90;;;;;;4997995;28;20046;-68
2023/10/24 04:38:06;;;;;;;14.93;8.05;;;12.50;99.90;;;;;;4997343;28;20026;-68
2023/10/24 04:40:32;;;;;;;17.80;8.23;;;12.60;99.90;;;;;;4997366;28;20034;-68
2023/10/24 04:42:57;;;;;;;13.52;8.27;;;12.60;99.90;;;;;;4997774;28;20085;-68
2023/10/24 04:45:23;;;;;;;13.57;7.85;;;12.70;99.90;;;;;;4997818;28;20033;-68
2023/10/24 04:47:48;;;;;;;15.05;8.43;;;12.70;99.90;;;;;;4996854;28;20034;-68
2023/10/24 04:50:14;;;;;;;10.88;7.28;;;12.70;99.90;;;;;;4996771;28;20118;-68
2023/10/24 04:52:40;;;;;;;15.98;8.32;;;12.80;99.90;;;;;;4997029;28;20113;-68
2023/10/24 04:55:06;;;;;;;13.68;7.97;;;12.70;99.90;;;;;;4996983;28;20053;-68
2023/10/24 04:57:32;;;;;;;17.13;8.43;;;12.70;99.90;;;;;;4997632;28;20057;-69
2023/10/24 04:59:58;;;;;;;12.85;7.82;;;12.70;99.90;;;;;;4996600;28;20050;-68
2023/10/24 05:02:24;;;;;;;18.13;8.93;;;12.70;99.90;;;;;;4997926;28;20018;-68
2023/10/24 05:04:50;;;;;;;12.32;7.90;;;12.80;99.90;;;;;;4997437;28;20053;-69
2023/10/24 05:07:15;;;;;;;13.38;8.00;;;12.90;99.90;;;;;;4997442;28;20030;-68
2023/10/24 05:09:41;;;;;;;19.70;8.02;;;12.90;99.90;;;;;;4996458;28;20030;-68
2023/10/24 05:12:06;;;;;;;14.60;7.85;;;12.80;99.90;;;;;;4996432;28;20026;-69
2023/10/24 05:14:32;;;;;;;16.25;8.10;;;13.00;99.90;;;;;;4997508;28;20022;-68
2023/10/24 05:16:57;;;;;;;19.77;7.75;;;13.10;99.90;;;;;;4996322;28;20018;-68
2023/10/24 05:19:23;;;;;;;14.38;8.20;;;13.30;99.90;;;;;;4996397;28;20033;-68
2023/10/24 05:21:48;;;;;;;13.95;7.18;;;13.30;99.90;;;;;;4996705;28;20030;-68
2023/10/24 05:24:14;;;;;;;14.68;7.65;;;13.50;99.90;;;;;;4996772;28;20026;-68
2023/10/24 05:26:39;;;;;;;16.40;8.23;;;13.50;99.90;;;;;;4997113;28;20065;-68
2023/10/24 05:29:05;;;;;;;14.05;7.57;;;13.40;99.90;;;;;;4996254;28;20034;-68
2023/10/24 05:31:30;;;;;;;17.80;8.82;;;13.50;99.90;;;;;;4996980;28;20073;-68
2023/10/24 05:33:56;;;;;;;18.25;9.63;;;13.50;99.90;;;;;;4997643;28;20035;-68
2023/10/24 05:36:21;;;;;;;13.48;7.28;;;13.60;99.90;;;;;;4997064;28;20026;-68
2023/10/24 05:38:47;;;;;;;12.98;7.88;;;13.70;99.90;;;;;;4996674;28;20068;-68
2023/10/24 05:41:12;;;;;;;18.58;8.07;;;13.60;99.90;;;;;;4996496;28;20022;-68
2023/10/24 05:43:39;;;;;;;13.55;8.30;;;13.50;99.90;;;;;;4997216;28;20062;-68
2023/10/24 05:46:05;;;;;;;14.38;8.13;;;13.50;99.90;;;;;;4997156;28;20022;-68
2023/10/24 05:48:31;;;;;;;12.93;8.07;;;13.60;99.90;;;;;;4996190;28;20070;-69
2023/10/24 05:50:57;;;;;;;17.25;8.63;;;13.50;99.90;;;;;;4997395;28;20081;-69
2023/10/24 05:53:22;;;;;;;17.33;7.55;;;13.50;99.90;;;;;;4999946;28;20031;-69
2023/10/24 05:55:48;;;;;;;13.95;8.40;;;13.50;99.90;;;;;;5000626;28;20018;-69
2023/10/24 05:58:13;;;;;;;15.65;8.68;;;13.50;99.90;;;;;;4999915;28;20026;-68
2023/10/24 06:00:39;;;;;;;15.07;8.00;;;13.50;99.90;;;;;;4999549;28;20117;-68
2023/10/24 06:03:05;;;;;;;19.92;8.75;;;13.50;99.90;;;;;;5000491;28;20064;-68
2023/10/24 06:05:30;;;;;;;15.85;8.52;;;13.30;99.90;;;;;;4999530;28;20052;-68
2023/10/24 06:07:56;;;;;;;18.10;8.75;;;13.20;99.90;;;;;;4999603;28;20022;-68
2023/10/24 06:10:21;;;;;;;15.13;9.25;;;13.10;99.90;;;;;;5000601;28;20027;-68
2023/10/24 06:12:47;;;;;;;18.40;9.15;;;12.90;99.90;;;;;;5000379;28;20026;-68
2023/10/24 06:15:12;;;;;;;17.63;8.90;;;12.80;99.90;;;;;;5000239;28;20027;-68
2023/10/24 06:17:38;;;;;;;13.15;7.70;;;12.90;99.90;;;;;;5000106;28;20027;-68
2023/10/24 06:20:04;;;;;;;15.48;8.73;;;12.90;99.90;;;;;;4999297;28;20022;-68
2023/10/24 06:22:30;;;;;;;14.73;8.35;;;12.80;99.90;;;;;;4999166;28;20026;-68
2023/10/24 06:24:57;;;;;;;14.65;8.10;;;12.90;99.90;;;;;;5000057;28;20029;-68
2023/10/24 06:27:23;;;;;;;13.38;8.18;;;13.00;99.90;;;;;;5000038;28;20030;-68
2023/10/24 06:29:48;;;;;;;15.43;7.63;;;13.00;99.90;;;;;;4999844;28;20053;-68
2023/10/24 06:32:14;;;;;;;15.45;8.32;;;13.00;99.90;;;;;;4999961;28;20033;-68
2023/10/24 06:34:39;;;;;;;16.15;8.05;;;12.90;99.90;;;;;;5000144;28;20037;-69
2023/10/24 06:37:05;;;;;;;16.00;7.43;;;12.80;99.90;;;;;;4999764;28;20034;-68
2023/10/24 06:39:30;;;;;;;14.10;8.35;;;12.90;99.90;;;;;;4999890;28;20033;-69
2023/10/24 06:41:56;;;;;;;14.70;8.05;;;12.90;99.90;;;;;;4999184;28;20019;-68
2023/10/24 06:44:22;;;;;;;11.57;7.30;;;12.90;99.90;;;;;;4998932;28;20076;-69
2023/10/24 06:46:49;;;;;;;14.48;7.18;;;12.90;99.90;;;;;;4999854;28;20073;-69
2023/10/24 06:49:14;;;;;;;14.20;7.65;;;13.00;99.90;;;;;;4999422;28;20048;-69
2023/10/24 06:51:40;;;;;;;14.32;7.30;;;13.00;99.90;;;;;;4999774;28;20106;-69
2023/10/24 06:54:05;;;;;;;12.75;8.43;;;13.20;99.90;;;;;;4998866;28;20023;-68
2023/10/24 06:56:34;;;;;;;21.13;7.88;;;13.20;99.90;;;;;;4999460;28;20057;-68
2023/10/24 06:59:00;;;;;;;16.83;8.55;;;13.30;99.90;;;;;;4998424;28;20037;-68
2023/10/24 07:01:25;;;;;;;13.60;8.65;;;13.20;99.90;;;;;;4999395;28;20026;-68
2023/10/24 07:03:51;;;;;;;19.98;9.57;;;13.10;99.90;;;;;;4998262;28;20026;-68
2023/10/24 07:06:16;;;;;;;18.67;10.02;;;13.00;99.90;;;;;;4999779;28;20033;-68
2023/10/24 07:08:42;;;;;;;13.07;8.07;;;13.10;99.90;;;;;;4999613;28;20034;-68
2023/10/24 07:11:08;;;;;;;16.38;9.23;;;13.20;99.90;;;;;;4999224;28;20026;-68
2023/10/24 07:13:37;;;;;;;19.35;9.02;;;13.20;99.90;;;;;;4998194;28;20031;-68
2023/10/24 07:16:11;;;;;;;20.92;9.40;;;13.10;99.90;;;;;;4999052;28;20104;-68
2023/10/24 07:18:36;;;;;;;13.50;8.18;;;12.90;99.90;;;;;;4998182;28;20026;-68
2023/10/24 07:21:02;;;;;;;19.35;8.10;;;13.00;99.90;;;;;;4999261;28;20028;-68
2023/10/24 07:23:28;;;;;;;15.77;8.68;;;13.00;99.90;;;;;;4998849;28;20026;-68
2023/10/24 07:25:57;;;;;;;16.38;8.43;;;13.00;99.90;;;;;;4998377;28;20167;-68
2023/10/24 07:28:22;;;;;;;18.23;9.10;;;12.90;99.90;;;;;;4997929;28;20081;-68
2023/10/24 07:30:51;;;;;;;16.98;8.95;;;12.90;99.90;;;;;;4997985;28;20034;-68
2023/10/24 07:33:18;;;;;;;13.90;8.95;;;12.90;99.90;;;;;;4998725;28;20025;-68
2023/10/24 07:35:46;;;;;;;19.73;9.48;;;13.10;99.90;;;;;;4998038;28;20027;-68
2023/10/24 07:38:11;;;;;;;17.90;9.82;;;13.20;99.90;;;;;;4998742;28;20023;-68
2023/10/24 07:40:38;;;;;;;17.02;9.25;;;13.10;99.90;;;;;;4997737;28;20061;-68
2023/10/24 07:43:03;;;;;;;17.15;9.35;;;13.00;99.90;;;;;;4997613;28;20114;-69
2023/10/24 07:45:30;;;;;;;21.63;9.32;;;13.20;99.90;;;;;;4998516;28;20054;-69
2023/10/24 07:47:56;;;;;;;17.42;8.38;;;13.30;99.90;;;;;;4997396;28;20065;-69
2023/10/24 07:50:21;;;;;;;16.83;8.52;;;13.40;99.90;;;;;;4997966;28;20121;-69
2023/10/24 07:52:47;;;;;;;17.23;8.80;;;13.50;99.90;;;;;;4997232;28;20064;-68
2023/10/24 07:55:12;;;;;;;18.70;8.85;;;13.50;99.90;;;;;;4997471;28;20026;-69
2023/10/24 07:57:38;;;;;;;16.35;8.93;;;13.60;99.90;;;;;;4997758;28;20061;-69
2023/10/24 08:00:04;;;;;;;16.92;9.35;;;13.70;99.90;;;;;;4997716;28;20030;-69
2023/10/24 08:02:30;;;;;;;20.17;8.98;;;13.80;99.90;;;;;;4997278;28;20026;-68
2023/10/24 08:04:55;;;;;;;15.52;9.10;;;13.70;99.90;;;;;;4997323;28;20022;-68
2023/10/24 08:07:21;;;;;;;17.60;8.65;;;13.80;99.90;;;;;;4998361;28;20080;-69
2023/10/24 08:09:46;;;;;;;21.05;9.63;;;13.90;99.90;;;;;;4998226;28;20037;-68
2023/10/24 08:12:12;;;;;;;16.98;9.07;;;13.90;99.90;;;;;;4998027;28;20037;-68
2023/10/24 08:14:38;;;;;;;19.67;9.05;;;13.80;99.90;;;;;;4997152;28;20050;-68
2023/10/24 08:17:03;;;;;;;13.32;7.18;;;13.90;99.90;;;;;;4997975;28;20029;-68
2023/10/24 08:19:29;;;;;;;11.48;6.47;;;13.90;99.90;;;;;;4997223;28;20030;-68
2023/10/24 08:21:54;;;;;;;16.52;6.55;;;14.00;99.90;;;;;;4997275;28;20069;-69
2023/10/24 08:24:21;;;;;;;10.43;6.10;;;14.10;99.90;;;;;;4997028;28;20069;-68
2023/10/24 08:26:46;;;;;;;12.63;5.65;;;14.00;99.90;;;;;;4997991;28;20022;-68
2023/10/24 08:29:12;;;;;;;13.50;5.85;;;14.20;99.90;;;;;;4997167;28;20034;-67
2023/10/24 08:31:37;;;;;;;11.13;5.20;;;14.10;99.90;;;;;;4998112;28;20073;-68
2023/10/24 08:34:18;;;;;;;14.85;6.22;;;14.10;99.90;;;;;;4996278;28;20110;-68
2023/10/24 08:36:44;;;;;;;10.13;4.88;;;14.00;99.90;;;;;;4998018;28;20054;-68
2023/10/24 08:39:09;;;;;;;8.43;4.43;;;14.00;99.90;;;;;;4997640;28;20094;-69
2023/10/24 08:41:35;;;;;;;9.35;5.03;;;14.00;99.90;;;;;;4996891;28;20117;-69
2023/10/24 08:44:02;;;;;;;7.30;4.20;;;14.00;99.90;;;;;;4997665;28;20022;-68
2023/10/24 08:46:27;;;;;;;8.77;4.60;;;14.20;99.90;;;;;;4997721;28;20110;-68
2023/10/24 08:48:53;;;;;;;10.05;4.97;;;14.20;99.90;;;;;;5020664;23;20077;-70
2023/10/24 08:51:19;;;;;;;9.13;4.07;;;14.20;99.90;;;;;;4997749;28;20019;-70
2023/10/24 08:53:44;;;;;;;7.38;4.47;;;14.20;99.90;;;;;;4996941;28;20027;-70
2023/10/24 08:56:10;;;;;;;8.27;4.25;;;14.20;99.90;;;;;;4997651;28;20089;-69
2023/10/24 08:58:38;;;;;;;8.07;4.05;;;14.20;99.90;;;;;;4996640;28;20034;-69
2023/10/24 09:01:06;;;;;;;7.15;4.00;;;14.20;99.90;;;;;;4997735;28;20018;-69
2023/10/24 09:03:31;;;;;;;6.88;4.43;;;14.20;99.90;;;;;;4997315;28;20049;-69
2023/10/24 09:05:58;;;;;;;10.88;4.68;;;14.20;99.90;;;;;;4996770;28;20026;-69
2023/10/24 09:08:24;;;;;;;6.50;4.53;;;14.10;99.90;;;;;;4997361;28;20034;-69
2023/10/24 09:10:50;;;;;;;10.50;4.93;;;14.10;99.90;;;;;;4996623;28;20094;-70
2023/10/24 09:13:17;;;;;;;9.77;4.63;;;14.00;99.90;;;;;;4997388;28;20102;-70
2023/10/24 09:15:42;;;;;;;7.93;4.70;;;14.20;99.90;;;;;;4996484;28;20023;-69
2023/10/24 09:18:08;;;;;;;10.15;4.90;;;14.00;99.90;;;;;;4997482;28;20026;-70
2023/10/24 09:20:34;;;;;;;11.63;5.28;;;14.00;99.90;;;;;;4997600;28;20102;-70
2023/10/24 09:23:07;;;;;;;11.13;5.35;;;13.90;99.90;;;;;;4997853;28;20030;-70
2023/10/24 09:25:33;;;;;;;9.68;5.28;;;14.00;99.90;;;;;;4998342;28;20056;-70
2023/10/24 09:28:18;;;;;;;10.60;4.63;;;14.00;99.90;;;;;;5000509;28;20026;-71
2023/10/24 09:30:44;;;;;;;11.25;5.13;;;14.00;99.90;;;;;;5000477;28;20027;-70
2023/10/24 09:33:10;;;;;;;11.45;4.88;;;14.00;99.90;;;;;;5000412;28;20029;-70
2023/10/24 09:35:36;;;;;;;9.73;4.63;;;13.90;99.90;;;;;;5000092;28;20113;-70
2023/10/24 09:38:05;;;;;;;11.65;4.88;;;13.90;99.90;;;;;;5000037;28;20022;-70
2023/10/24 09:40:39;;;;;;;9.32;5.03;;;14.00;99.90;;;;;;5000882;28;20029;-70
2023/10/24 09:43:22;;;;;;;9.35;5.70;;;13.90;99.90;;;;;;5001043;28;20025;-70
2023/10/24 09:45:51;;;;;;;12.32;5.85;;;14.00;99.90;;;;;;5000028;28;20053;-70
2023/10/24 09:48:17;;;;;;;15.07;5.65;;;14.00;99.90;;;;;;5000814;28;20034;-69
2023/10/24 09:50:43;;;;;;;10.82;6.07;;;14.00;99.90;;;;;;4999949;28;20049;-70
2023/10/24 09:53:10;;;;;;;9.98;5.80;;;14.00;99.90;;;;;;5000798;28;20053;-69
2023/10/24 09:55:38;;;;;;;11.52;5.82;;;14.10;99.90;;;;;;5000807;28;20023;-69
2023/10/24 09:58:05;;;;;;;8.98;5.07;;;14.10;99.90;;;;;;5000459;28;20073;-69
2023/10/24 10:00:32;;;;;;;12.13;5.10;;;14.00;99.90;;;;;;5000609;28;20019;-69
2023/10/24 10:02:59;;;;;;;10.45;5.53;;;14.00;99.90;;;;;;5000930;28;20022;-69
2023/10/24 10:05:29;;;;;;;11.45;6.45;;;14.00;99.90;;;;;;5000363;28;20088;-69
2023/10/24 10:07:57;;;;;;;14.30;5.82;;;14.00;99.90;;;;;;5000417;28;20041;-69
2023/10/24 10:10:27;;;;;;;11.55;5.75;;;14.10;99.90;;;;;;5000411;28;20027;-70
2023/10/24 10:12:59;;;;;;;13.57;5.68;;;14.10;99.90;;;;;;5000299;28;20081;-70
2023/10/24 10:15:38;;;;;;;12.52;6.57;;;14.10;99.90;;;;;;5000964;28;20031;-70
2023/10/24 10:18:29;;;;;;;11.77;6.53;;;14.00;99.90;;;;;;5000180;28;20018;-70
2023/10/24 10:21:20;;;;;;;13.40;6.10;;;14.00;99.90;;;;;;5000875;28;20029;-70
2023/10/24 10:24:18;;;;;;;11.25;5.95;;;14.00;99.90;;;;;;5000413;28;20030;-69
2023/10/24 10:27:12;;;;;;;18.83;6.70;;;14.00;99.90;;;;;;5000173;28;20027;-70
2023/10/24 10:30:06;;;;;;;12.52;6.80;;;14.10;99.90;;;;;;4999920;28;20033;-70
2023/10/24 10:33:09;;;;;;;11.50;6.18;;;14.00;99.90;;;;;;5000443;28;20034;-70
2023/10/24 10:35:53;;;;;;;11.98;6.30;;;14.00;99.90;;;;;;4999842;28;20025;-70
2023/10/24 10:38:44;;;;;;;11.25;6.53;;;14.00;99.90;;;;;;4999239;28;20023;-70
2023/10/24 10:41:22;;;;;;;14.60;6.93;;;14.00;99.90;;;;;;5000026;28;20052;-70
2023/10/24 10:43:55;;;;;;;15.73;7.13;;;14.00;99.90;;;;;;4999721;28;20034;-69
2023/10/24 10:46:24;;;;;;;18.83;7.60;;;13.90;99.90;;;;;;4999862;28;20101;-69
2023/10/24 10:48:50;;;;;;;18.65;7.43;;;13.90;99.90;;;;;;4998826;28;20116;-69
2023/10/24 10:51:20;;;;;;;13.70;6.80;;;14.10;99.90;;;;;;4999161;28;20034;-69
2023/10/24 10:53:53;;;;;;;11.27;6.65;;;14.10;99.90;;;;;;4999541;28;20165;-69
2023/10/24 10:56:23;;;;;;;11.23;6.38;;;14.20;99.90;;;;;;5000118;28;20034;-69
2023/10/24 10:59:16;;;;;;;12.57;6.97;;;14.40;99.90;;;;;;4998405;28;20029;-69
2023/10/24 11:01:58;;;;;;;14.98;7.28;;;14.30;99.90;;;;;;4998581;28;20027;-69
2023/10/24 11:04:24;;;;;;;11.43;7.32;;;14.30;99.90;;;;;;4999528;28;20026;-69
2023/10/24 11:06:53;;;;;;;18.15;6.80;;;14.30;99.90;;;;;;4999381;28;20037;-69
2023/10/24 11:09:27;;;;;;;15.77;7.85;;;14.10;99.90;;;;;;4998729;28;20034;-69
2023/10/24 11:12:19;;;;;;;14.50;7.50;;;14.10;99.90;;;;;;4998470;28;20019;-69
2023/10/24 11:15:04;;;;;;;;;;;14.00;99.90;;;;;;4995079;28;20058;-69
2023/10/24 11:17:31;;;;;;;18.13;7.30;;;13.90;99.90;;;;;;4998710;28;19921;-70
2023/10/24 11:19:58;;;;;;;16.73;7.70;;;14.00;99.90;;;;;;4998270;28;20117;-70
2023/10/24 11:22:24;;;;;;;14.38;7.88;;;13.90;99.90;;;;;;4998263;28;20027;-70
2023/10/24 11:24:50;;;;;;;14.82;8.35;;;13.80;99.90;;;;;;4998852;28;20026;-70
2023/10/24 11:27:15;;;;;;;15.35;8.15;;;13.60;99.90;;;;;;4998037;28;20041;-70
2023/10/24 11:29:42;;;;;;;14.35;7.93;;;13.50;99.90;;;;;;4998014;28;20117;-69
2023/10/24 11:32:08;;;;;;;19.42;8.95;;;13.60;99.90;;;;;;4997811;28;20034;-70
2023/10/24 11:34:34;;;;;;;18.33;9.07;;;13.50;99.90;;;;;;4997943;28;20026;-69
2023/10/24 11:36:59;;;;;;;15.93;9.85;;;13.30;99.90;;;;;;4997660;28;20029;-69
2023/10/24 11:39:25;;;;;;;23.48;11.27;;;13.20;99.90;;;;;;4997799;28;20097;-69
2023/10/24 11:41:50;;;;;;;13.10;8.68;;;13.20;99.90;;;;;;4998872;28;20026;-69
2023/10/24 11:44:17;;;;;;;13.63;7.57;;;13.40;99.90;;;;;;4998669;28;20022;-70
2023/10/24 11:46:44;;;;;;;12.77;8.20;;;13.50;99.90;;;;;;4998682;28;20073;-69
2023/10/24 11:49:10;;;;;;;14.07;8.63;;;13.60;99.90;;;;;;4997557;28;20046;-70
2023/10/24 11:51:36;;;;;;;16.17;8.52;;;13.70;99.90;;;;;;4997709;28;20033;-70
2023/10/24 11:54:03;;;;;;;19.45;8.98;;;13.50;99.90;;;;;;4997410;28;20026;-70
2023/10/24 11:56:29;;;;;;;14.77;9.07;;;13.50;99.90;;;;;;4997878;28;20022;-69
2023/10/24 11:58:56;;;;;;;14.27;8.10;;;13.50;99.90;;;;;;4998296;28;20018;-69
2023/10/24 12:01:29;;;;;;;14.68;8.73;;;13.60;99.90;;;;;;4997639;28;20050;-69
2023/10/24 12:03:56;;;;;;;15.00;8.75;;;13.70;99.90;;;;;;4998435;28;20030;-69
2023/10/24 12:06:22;;;;;;;14.63;8.23;;;13.60;99.90;;;;;;4998205;28;20105;-70
2023/10/24 12:08:57;;;;;;;14.07;8.25;;;13.80;99.90;;;;;;4997304;28;20073;-70
2023/10/24 12:11:23;;;;;;;15.93;8.23;;;13.80;99.90;;;;;;4998613;28;20026;-70
2023/10/24 12:13:49;;;;;;;16.80;8.82;;;13.60;99.90;;;;;;4998103;28;20030;-70
2023/10/24 12:16:15;;;;;;;16.27;8.50;;;13.60;99.90;;;;;;4997983;28;20050;-70
2023/10/24 12:18:41;;;;;;;12.52;8.20;;;13.50;99.90;;;;;;4998192;28;20061;-69
2023/10/24 12:21:07;;;;;;;14.60;7.85;;;13.70;99.90;;;;;;4997986;28;20080;-70
2023/10/24 12:23:34;;;;;;;13.15;7.35;;;13.80;99.90;;;;;;4996940;28;20026;-70
2023/10/24 12:26:00;;;;;;;14.65;6.97;;;13.60;99.90;;;;;;4997925;28;20022;-70
2023/10/24 12:28:26;;;;;;;10.73;7.22;;;13.50;99.90;;;;;;4996946;28;20121;-70
2023/10/24 12:30:53;;;;;;;17.23;8.20;;;13.50;99.90;;;;;;4997013;28;20026;-70
2023/10/24 12:33:18;;;;;;;12.23;7.07;;;13.60;99.90;;;;;;4996910;28;20027;-70
2023/10/24 12:35:44;;;;;;;13.15;7.30;;;13.60;99.90;;;;;;4996920;28;20018;-69
2023/10/24 12:38:09;;;;;;;11.50;7.68;;;13.70;99.90;;;;;;4997709;28;20018;-70
2023/10/24 12:40:37;;;;;;;12.85;8.27;;;13.50;99.90;;;;;;4996806;28;20029;-70